createdAt,value
2022-08-26T00:00:56.332Z,1007.70
2022-08-26T00:03:00.371Z,1007.71
2022-08-26T00:04:00.442Z,1007.70
2022-08-26T00:06:04.881Z,1007.72
2022-08-26T00:07:05.314Z,1007.72
2022-08-26T00:09:08.459Z,1007.75
2022-08-26T00:10:08.479Z,1007.76
2022-08-26T00:12:12.984Z,1007.76
2022-08-26T00:13:12.542Z,1007.76
2022-08-26T00:15:16.573Z,1007.76
2022-08-26T00:16:16.613Z,1007.77
2022-08-26T00:18:21.756Z,1007.78
2022-08-26T00:19:10.254Z,1007.79
2022-08-26T00:20:10.287Z,1007.79
2022-08-26T00:21:10.317Z,1007.81
2022-08-26T00:22:10.343Z,1007.80
2022-08-26T00:23:10.375Z,1007.80
2022-08-26T00:24:10.405Z,1007.83
2022-08-26T00:25:10.437Z,1007.77
2022-08-26T00:26:11.099Z,1007.76
2022-08-26T00:27:10.494Z,1007.76
2022-08-26T00:28:10.842Z,1007.74
2022-08-26T00:29:10.554Z,1007.75
2022-08-26T00:30:10.583Z,1007.74
2022-08-26T00:31:11.123Z,1007.75
2022-08-26T00:32:10.645Z,1007.77
2022-08-26T00:33:10.841Z,1007.79
2022-08-26T00:34:11.228Z,1007.78
2022-08-26T00:35:10.731Z,1007.76
2022-08-26T00:36:20.127Z,1007.75
2022-08-26T00:37:13.400Z,1007.78
2022-08-26T00:38:10.820Z,1007.81
2022-08-26T00:39:10.852Z,1007.75
2022-08-26T00:40:10.913Z,1007.79
2022-08-26T00:41:10.916Z,1007.79
2022-08-26T00:42:10.942Z,1007.79
2022-08-26T00:43:11.007Z,1007.80
2022-08-26T00:44:11.048Z,1007.78
2022-08-26T00:45:11.578Z,1007.77
2022-08-26T00:46:11.150Z,1007.76
2022-08-26T00:47:11.089Z,1007.76
2022-08-26T00:48:11.140Z,1007.76
2022-08-26T00:49:12.045Z,1007.71
2022-08-26T00:50:11.180Z,1007.71
2022-08-26T00:51:11.213Z,1007.70
2022-08-26T00:52:11.976Z,1007.68
2022-08-26T00:53:11.273Z,1007.70
2022-08-26T00:54:11.298Z,1007.67
2022-08-26T00:55:11.330Z,1007.64
2022-08-26T00:56:11.353Z,1007.66
2022-08-26T00:57:16.231Z,1007.65
2022-08-26T00:58:11.422Z,1007.66
2022-08-26T00:59:11.449Z,1007.68
2022-08-26T01:00:11.502Z,1007.65
2022-08-26T01:01:11.587Z,1007.70
2022-08-26T01:02:20.150Z,1007.69
2022-08-26T01:03:12.797Z,1007.69
2022-08-26T01:04:11.596Z,1007.67
2022-08-26T01:05:11.626Z,1007.70
2022-08-26T01:06:13.038Z,1007.70
2022-08-26T01:07:11.683Z,1007.67
2022-08-26T01:08:11.715Z,1007.67
2022-08-26T01:09:11.745Z,1007.67
2022-08-26T01:10:11.776Z,1007.65
2022-08-26T01:11:11.808Z,1007.65
2022-08-26T01:12:11.837Z,1007.67
2022-08-26T01:13:11.866Z,1007.69
2022-08-26T01:14:11.918Z,1007.67
2022-08-26T01:15:11.922Z,1007.67
2022-08-26T01:16:11.991Z,1007.67
2022-08-26T01:17:11.983Z,1007.68
2022-08-26T01:18:12.012Z,1007.67
2022-08-26T01:19:12.042Z,1007.71
2022-08-26T01:20:12.070Z,1007.70
2022-08-26T01:21:12.105Z,1007.69
2022-08-26T01:22:12.134Z,1007.71
2022-08-26T01:23:12.168Z,1007.66
2022-08-26T01:24:12.191Z,1007.68
2022-08-26T01:25:12.223Z,1007.68
2022-08-26T01:26:19.492Z,1007.70
2022-08-26T01:27:12.283Z,1007.67
2022-08-26T01:28:12.325Z,1007.65
2022-08-26T01:29:12.339Z,1007.66
2022-08-26T01:30:12.371Z,1007.68
2022-08-26T01:31:12.422Z,1007.69
2022-08-26T01:32:12.457Z,1007.66
2022-08-26T01:33:12.458Z,1007.68
2022-08-26T01:34:12.490Z,1007.68
2022-08-26T01:35:12.514Z,1007.67
2022-08-26T01:36:12.553Z,1007.65
2022-08-26T01:37:14.176Z,1007.70
2022-08-26T01:38:12.607Z,1007.68
2022-08-26T01:39:12.635Z,1007.65
2022-08-26T01:40:12.709Z,1007.67
2022-08-26T01:41:16.283Z,1007.66
2022-08-26T01:42:12.728Z,1007.64
2022-08-26T01:43:12.753Z,1007.67
2022-08-26T01:44:12.787Z,1007.64
2022-08-26T01:45:12.813Z,1007.63
2022-08-26T01:46:12.905Z,1007.66
2022-08-26T01:47:12.873Z,1007.68
2022-08-26T01:48:12.904Z,1007.68
2022-08-26T01:49:12.931Z,1007.70
2022-08-26T01:50:12.962Z,1007.69
2022-08-26T01:51:12.994Z,1007.67
2022-08-26T01:52:13.023Z,1007.72
2022-08-26T01:53:13.051Z,1007.69
2022-08-26T01:54:13.792Z,1007.71
2022-08-26T01:55:13.109Z,1007.71
2022-08-26T01:56:13.139Z,1007.74
2022-08-26T01:57:13.172Z,1007.74
2022-08-26T01:58:13.199Z,1007.72
2022-08-26T01:59:13.231Z,1007.72
2022-08-26T02:00:13.255Z,1007.69
2022-08-26T02:01:13.363Z,1007.73
2022-08-26T02:02:13.316Z,1007.72
2022-08-26T02:03:13.349Z,1007.71
2022-08-26T02:04:13.428Z,1007.76
2022-08-26T02:05:13.404Z,1007.71
2022-08-26T02:06:13.438Z,1007.70
2022-08-26T02:07:13.466Z,1007.71
2022-08-26T02:08:13.494Z,1007.66
2022-08-26T02:09:13.528Z,1007.66
2022-08-26T02:10:13.555Z,1007.67
2022-08-26T02:11:13.585Z,1007.69
2022-08-26T02:12:13.614Z,1007.68
2022-08-26T02:13:13.649Z,1007.66
2022-08-26T02:14:13.675Z,1007.67
2022-08-26T02:15:13.705Z,1007.66
2022-08-26T02:16:13.756Z,1007.67
2022-08-26T02:17:13.764Z,1007.67
2022-08-26T02:18:14.105Z,1007.69
2022-08-26T02:19:17.167Z,1007.69
2022-08-26T02:20:15.051Z,1007.70
2022-08-26T02:21:13.879Z,1007.71
2022-08-26T02:22:13.917Z,1007.74
2022-08-26T02:23:13.941Z,1007.73
2022-08-26T02:24:13.969Z,1007.73
2022-08-26T02:25:14.015Z,1007.73
2022-08-26T02:26:14.370Z,1007.73
2022-08-26T02:27:14.052Z,1007.73
2022-08-26T02:28:14.175Z,1007.72
2022-08-26T02:29:14.116Z,1007.73
2022-08-26T02:30:14.147Z,1007.73
2022-08-26T02:31:14.212Z,1007.75
2022-08-26T02:32:14.206Z,1007.77
2022-08-26T02:33:14.234Z,1007.77
2022-08-26T02:34:14.266Z,1007.79
2022-08-26T02:35:20.031Z,1007.78
2022-08-26T02:36:14.321Z,1007.74
2022-08-26T02:37:14.350Z,1007.74
2022-08-26T02:38:14.381Z,1007.75
2022-08-26T02:39:19.533Z,1007.68
2022-08-26T02:40:14.560Z,1007.72
2022-08-26T02:41:14.468Z,1007.69
2022-08-26T02:42:14.500Z,1007.68
2022-08-26T02:43:14.529Z,1007.66
2022-08-26T02:44:14.559Z,1007.63
2022-08-26T02:45:14.584Z,1007.65
2022-08-26T02:46:21.509Z,1007.63
2022-08-26T02:47:14.707Z,1007.62
2022-08-26T02:48:14.675Z,1007.66
2022-08-26T02:49:14.701Z,1007.59
2022-08-26T02:50:14.736Z,1007.63
2022-08-26T02:51:14.763Z,1007.61
2022-08-26T02:52:14.793Z,1007.65
2022-08-26T02:53:14.821Z,1007.64
2022-08-26T02:54:14.851Z,1007.65
2022-08-26T02:55:14.880Z,1007.66
2022-08-26T02:56:14.909Z,1007.67
2022-08-26T02:57:14.940Z,1007.64
2022-08-26T02:58:14.974Z,1007.65
2022-08-26T02:59:14.994Z,1007.64
2022-08-26T03:00:15.028Z,1007.63
2022-08-26T03:01:15.086Z,1007.61
2022-08-26T03:02:15.147Z,1007.60
2022-08-26T03:03:15.113Z,1007.64
2022-08-26T03:04:15.232Z,1007.63
2022-08-26T03:05:15.171Z,1007.57
2022-08-26T03:06:15.202Z,1007.61
2022-08-26T03:07:15.230Z,1007.58
2022-08-26T03:08:15.258Z,1007.55
2022-08-26T03:09:18.559Z,1007.55
2022-08-26T03:10:15.369Z,1007.51
2022-08-26T03:11:15.345Z,1007.51
2022-08-26T03:12:15.375Z,1007.44
2022-08-26T03:13:15.401Z,1007.54
2022-08-26T03:14:15.434Z,1007.53
2022-08-26T03:15:17.627Z,1007.52
2022-08-26T03:16:15.629Z,1007.53
2022-08-26T03:17:15.522Z,1007.53
2022-08-26T03:18:15.548Z,1007.49
2022-08-26T03:19:15.576Z,1007.49
2022-08-26T03:20:15.664Z,1007.50
2022-08-26T03:21:15.634Z,1007.50
2022-08-26T03:22:15.664Z,1007.48
2022-08-26T03:23:15.693Z,1007.49
2022-08-26T03:24:15.722Z,1007.50
2022-08-26T03:25:15.762Z,1007.48
2022-08-26T03:26:15.784Z,1007.52
2022-08-26T03:27:15.809Z,1007.50
2022-08-26T03:28:15.837Z,1007.48
2022-08-26T03:29:15.871Z,1007.50
2022-08-26T03:30:15.901Z,1007.47
2022-08-26T03:31:15.988Z,1007.46
2022-08-26T03:32:15.955Z,1007.46
2022-08-26T03:33:15.982Z,1007.48
2022-08-26T03:34:16.011Z,1007.45
2022-08-26T03:35:16.038Z,1007.50
2022-08-26T03:36:16.072Z,1007.51
2022-08-26T03:37:16.095Z,1007.50
2022-08-26T03:38:16.127Z,1007.49
2022-08-26T03:39:16.155Z,1007.49
2022-08-26T03:40:16.248Z,1007.47
2022-08-26T03:41:16.213Z,1007.50
2022-08-26T03:42:16.243Z,1007.51
2022-08-26T03:43:16.269Z,1007.52
2022-08-26T03:44:16.300Z,1007.53
2022-08-26T03:45:16.327Z,1007.52
2022-08-26T03:46:16.373Z,1007.54
2022-08-26T03:47:16.384Z,1007.50
2022-08-26T03:48:16.415Z,1007.51
2022-08-26T03:49:16.445Z,1007.54
2022-08-26T03:50:16.472Z,1007.59
2022-08-26T03:51:18.322Z,1007.53
2022-08-26T03:52:16.531Z,1007.56
2022-08-26T03:53:16.557Z,1007.59
2022-08-26T03:54:16.587Z,1007.55
2022-08-26T03:55:16.621Z,1007.55
2022-08-26T03:56:16.642Z,1007.56
2022-08-26T03:57:16.748Z,1007.56
2022-08-26T03:58:16.705Z,1007.56
2022-08-26T03:59:16.730Z,1007.57
2022-08-26T04:00:18.465Z,1007.57
2022-08-26T04:01:16.827Z,1007.55
2022-08-26T04:02:16.816Z,1007.54
2022-08-26T04:03:18.787Z,1007.59
2022-08-26T04:04:16.872Z,1007.59
2022-08-26T04:05:16.898Z,1007.59
2022-08-26T04:06:16.935Z,1007.64
2022-08-26T04:07:16.961Z,1007.63
2022-08-26T04:08:16.988Z,1007.62
2022-08-26T04:09:17.015Z,1007.59
2022-08-26T04:10:17.045Z,1007.56
2022-08-26T04:11:17.073Z,1007.58
2022-08-26T04:12:17.100Z,1007.57
2022-08-26T04:13:17.136Z,1007.53
2022-08-26T04:14:17.584Z,1007.55
2022-08-26T04:15:17.866Z,1007.52
2022-08-26T04:16:17.253Z,1007.50
2022-08-26T04:17:17.245Z,1007.52
2022-08-26T04:18:17.276Z,1007.52
2022-08-26T04:19:17.305Z,1007.54
2022-08-26T04:20:17.328Z,1007.52
2022-08-26T04:21:17.358Z,1007.57
2022-08-26T04:22:24.189Z,1007.57
2022-08-26T04:23:17.414Z,1007.56
2022-08-26T04:24:17.585Z,1007.54
2022-08-26T04:25:17.473Z,1007.51
2022-08-26T04:26:17.500Z,1007.55
2022-08-26T04:27:17.531Z,1007.52
2022-08-26T04:28:17.561Z,1007.51
2022-08-26T04:29:17.596Z,1007.49
2022-08-26T04:30:17.618Z,1007.52
2022-08-26T04:31:17.738Z,1007.54
2022-08-26T04:32:17.671Z,1007.50
2022-08-26T04:33:17.703Z,1007.50
2022-08-26T04:34:17.730Z,1007.52
2022-08-26T04:35:17.756Z,1007.46
2022-08-26T04:36:17.787Z,1007.47
2022-08-26T04:37:17.815Z,1007.48
2022-08-26T04:38:17.845Z,1007.46
2022-08-26T04:39:18.767Z,1007.45
2022-08-26T04:40:17.962Z,1007.46
2022-08-26T04:41:17.933Z,1007.46
2022-08-26T04:42:23.259Z,1007.49
2022-08-26T04:43:17.987Z,1007.50
2022-08-26T04:44:18.016Z,1007.51
2022-08-26T04:45:18.043Z,1007.52
2022-08-26T04:46:18.107Z,1007.52
2022-08-26T04:47:18.102Z,1007.54
2022-08-26T04:48:18.129Z,1007.52
2022-08-26T04:49:18.159Z,1007.57
2022-08-26T04:50:18.187Z,1007.52
2022-08-26T04:51:18.214Z,1007.52
2022-08-26T04:52:18.248Z,1007.57
2022-08-26T04:53:18.272Z,1007.59
2022-08-26T04:54:18.298Z,1007.59
2022-08-26T04:55:18.331Z,1007.56
2022-08-26T04:56:18.400Z,1007.62
2022-08-26T04:57:18.384Z,1007.61
2022-08-26T04:58:18.415Z,1007.57
2022-08-26T04:59:18.460Z,1007.61
2022-08-26T05:00:18.470Z,1007.64
2022-08-26T05:01:18.551Z,1007.62
2022-08-26T05:02:18.526Z,1007.65
2022-08-26T05:03:18.556Z,1007.65
2022-08-26T05:04:18.902Z,1007.70
2022-08-26T05:05:18.613Z,1007.72
2022-08-26T05:06:19.100Z,1007.68
2022-08-26T05:07:18.669Z,1007.71
2022-08-26T05:08:18.696Z,1007.70
2022-08-26T05:09:18.794Z,1007.69
2022-08-26T05:10:18.757Z,1007.69
2022-08-26T05:11:18.786Z,1007.67
2022-08-26T05:12:25.975Z,1007.66
2022-08-26T05:14:23.424Z,1007.75
2022-08-26T05:15:22.857Z,1007.71
2022-08-26T05:17:26.892Z,1007.72
2022-08-26T05:18:26.913Z,1007.69
2022-08-26T05:20:25.147Z,1007.68
2022-08-26T05:21:19.912Z,1007.70
2022-08-26T05:22:19.932Z,1007.70
2022-08-26T05:23:19.963Z,1007.72
2022-08-26T05:24:19.991Z,1007.70
2022-08-26T05:25:20.017Z,1007.74
2022-08-26T05:26:23.017Z,1007.74
2022-08-26T05:27:20.079Z,1007.72
2022-08-26T05:28:20.105Z,1007.72
2022-08-26T05:29:20.134Z,1007.71
2022-08-26T05:30:20.167Z,1007.71
2022-08-26T05:31:20.266Z,1007.71
2022-08-26T05:32:20.222Z,1007.71
2022-08-26T05:33:20.250Z,1007.75
2022-08-26T05:34:20.316Z,1007.75
2022-08-26T05:35:20.315Z,1007.76
2022-08-26T05:36:20.336Z,1007.75
2022-08-26T05:37:20.368Z,1007.78
2022-08-26T05:38:20.398Z,1007.76
2022-08-26T05:39:20.421Z,1007.77
2022-08-26T05:40:20.493Z,1007.70
2022-08-26T05:41:20.477Z,1007.68
2022-08-26T05:42:20.507Z,1007.71
2022-08-26T05:43:20.542Z,1007.68
2022-08-26T05:44:20.568Z,1007.74
2022-08-26T05:45:20.591Z,1007.72
2022-08-26T05:46:20.645Z,1007.74
2022-08-26T05:47:20.646Z,1007.75
2022-08-26T05:48:24.120Z,1007.78
2022-08-26T05:49:20.707Z,1007.84
2022-08-26T05:50:20.738Z,1007.84
2022-08-26T05:51:24.048Z,1007.82
2022-08-26T05:52:20.794Z,1007.82
2022-08-26T05:53:20.825Z,1007.84
2022-08-26T05:54:21.312Z,1007.85
2022-08-26T05:55:20.883Z,1007.89
2022-08-26T05:56:20.910Z,1007.90
2022-08-26T05:57:20.941Z,1007.91
2022-08-26T05:58:20.981Z,1007.85
2022-08-26T05:59:24.063Z,1007.93
2022-08-26T06:00:21.026Z,1007.90
2022-08-26T06:01:21.467Z,1007.91
2022-08-26T06:02:21.135Z,1007.92
2022-08-26T06:03:21.119Z,1007.90
2022-08-26T06:04:21.146Z,1007.87
2022-08-26T06:05:21.174Z,1007.87
2022-08-26T06:06:21.565Z,1007.89
2022-08-26T06:07:21.232Z,1007.89
2022-08-26T06:08:21.262Z,1007.89
2022-08-26T06:09:21.290Z,1007.89
2022-08-26T06:10:32.257Z,1007.89
2022-08-26T06:11:21.349Z,1007.94
2022-08-26T06:12:21.379Z,1007.93
2022-08-26T06:13:21.408Z,1007.93
2022-08-26T06:14:21.439Z,1007.98
2022-08-26T06:15:21.467Z,1007.96
2022-08-26T06:16:21.578Z,1007.97
2022-08-26T06:17:21.523Z,1008.03
2022-08-26T06:18:21.553Z,1008.05
2022-08-26T06:19:21.582Z,1008.01
2022-08-26T06:20:21.613Z,1008.00
2022-08-26T06:21:21.644Z,1008.01
2022-08-26T06:22:23.564Z,1008.04
2022-08-26T06:23:21.700Z,1008.11
2022-08-26T06:24:21.737Z,1008.12
2022-08-26T06:25:21.767Z,1008.15
2022-08-26T06:26:21.801Z,1008.15
2022-08-26T06:27:21.827Z,1008.13
2022-08-26T06:28:21.860Z,1008.11
2022-08-26T06:29:24.340Z,1008.15
2022-08-26T06:30:21.924Z,1008.16
2022-08-26T06:31:22.021Z,1008.16
2022-08-26T06:32:21.991Z,1008.21
2022-08-26T06:33:22.017Z,1008.23
2022-08-26T06:34:22.050Z,1008.21
2022-08-26T06:35:22.076Z,1008.24
2022-08-26T06:36:22.113Z,1008.23
2022-08-26T06:37:22.148Z,1008.22
2022-08-26T06:38:22.179Z,1008.26
2022-08-26T06:39:22.229Z,1008.28
2022-08-26T06:40:22.316Z,1008.30
2022-08-26T06:41:22.275Z,1008.29
2022-08-26T06:42:22.306Z,1008.29
2022-08-26T06:43:22.340Z,1008.29
2022-08-26T06:44:22.374Z,1008.32
2022-08-26T06:45:22.407Z,1008.35
2022-08-26T06:46:22.530Z,1008.38
2022-08-26T06:47:22.505Z,1008.38
2022-08-26T06:48:22.503Z,1008.34
2022-08-26T06:49:26.593Z,1008.34
2022-08-26T06:50:22.574Z,1008.34
2022-08-26T06:51:23.643Z,1008.36
2022-08-26T06:52:24.327Z,1008.34
2022-08-26T06:53:22.670Z,1008.34
2022-08-26T06:54:22.707Z,1008.36
2022-08-26T06:55:22.737Z,1008.33
2022-08-26T06:56:22.771Z,1008.36
2022-08-26T06:57:22.801Z,1008.37
2022-08-26T06:58:22.834Z,1008.37
2022-08-26T06:59:22.867Z,1008.32
2022-08-26T07:00:22.999Z,1008.35
2022-08-26T07:01:22.986Z,1008.37
2022-08-26T07:02:22.967Z,1008.34
2022-08-26T07:03:23.000Z,1008.38
2022-08-26T07:04:23.381Z,1008.36
2022-08-26T07:05:23.065Z,1008.36
2022-08-26T07:06:23.100Z,1008.38
2022-08-26T07:07:23.128Z,1008.35
2022-08-26T07:08:23.162Z,1008.38
2022-08-26T07:09:23.194Z,1008.38
2022-08-26T07:10:23.223Z,1008.36
2022-08-26T07:11:23.257Z,1008.42
2022-08-26T07:12:23.298Z,1008.45
2022-08-26T07:13:30.648Z,1008.45
2022-08-26T07:14:23.358Z,1008.50
2022-08-26T07:15:23.996Z,1008.49
2022-08-26T07:16:23.458Z,1008.49
2022-08-26T07:17:24.947Z,1008.48
2022-08-26T07:18:23.482Z,1008.48
2022-08-26T07:19:29.949Z,1008.52
2022-08-26T07:20:23.572Z,1008.47
2022-08-26T07:21:23.575Z,1008.53
2022-08-26T07:22:23.607Z,1008.57
2022-08-26T07:23:23.643Z,1008.52
2022-08-26T07:24:23.672Z,1008.58
2022-08-26T07:25:23.700Z,1008.58
2022-08-26T07:26:23.737Z,1008.58
2022-08-26T07:27:23.768Z,1008.57
2022-08-26T07:28:23.797Z,1008.56
2022-08-26T07:29:24.458Z,1008.57
2022-08-26T07:30:23.861Z,1008.56
2022-08-26T07:31:23.941Z,1008.58
2022-08-26T07:32:23.920Z,1008.59
2022-08-26T07:33:23.954Z,1008.57
2022-08-26T07:34:23.983Z,1008.61
2022-08-26T07:35:24.013Z,1008.65
2022-08-26T07:36:24.048Z,1008.64
2022-08-26T07:37:24.076Z,1008.63
2022-08-26T07:38:24.109Z,1008.66
2022-08-26T07:39:24.136Z,1008.66
2022-08-26T07:40:24.178Z,1008.69
2022-08-26T07:41:24.247Z,1008.67
2022-08-26T07:42:24.232Z,1008.71
2022-08-26T07:43:24.262Z,1008.68
2022-08-26T07:44:24.293Z,1008.71
2022-08-26T07:45:24.326Z,1008.71
2022-08-26T07:46:27.221Z,1008.74
2022-08-26T07:47:25.840Z,1008.77
2022-08-26T07:48:24.425Z,1008.78
2022-08-26T07:49:24.482Z,1008.81
2022-08-26T07:50:48.852Z,1008.81
2022-08-26T07:51:24.511Z,1008.77
2022-08-26T07:52:27.091Z,1008.81
2022-08-26T07:53:24.573Z,1008.78
2022-08-26T07:54:26.805Z,1008.80
2022-08-26T07:55:24.636Z,1008.81
2022-08-26T07:56:24.669Z,1008.82
2022-08-26T07:57:24.697Z,1008.82
2022-08-26T07:58:24.732Z,1008.79
2022-08-26T07:59:24.760Z,1008.79
2022-08-26T08:00:24.794Z,1008.80
2022-08-26T08:01:24.876Z,1008.80
2022-08-26T08:02:24.867Z,1008.82
2022-08-26T08:03:24.883Z,1008.82
2022-08-26T08:04:26.760Z,1008.84
2022-08-26T08:05:33.353Z,1008.82
2022-08-26T08:06:27.320Z,1008.83
2022-08-26T08:07:35.038Z,1008.83
2022-08-26T08:08:27.646Z,1008.86
2022-08-26T08:09:25.076Z,1008.87
2022-08-26T08:10:25.303Z,1008.85
2022-08-26T08:11:25.136Z,1008.86
2022-08-26T08:12:25.174Z,1008.85
2022-08-26T08:13:25.225Z,1008.84
2022-08-26T08:14:25.233Z,1008.85
2022-08-26T08:15:25.257Z,1008.81
2022-08-26T08:16:25.901Z,1008.87
2022-08-26T08:17:25.325Z,1008.86
2022-08-26T08:18:25.359Z,1008.88
2022-08-26T08:19:28.411Z,1008.90
2022-08-26T08:20:25.418Z,1008.92
2022-08-26T08:21:25.448Z,1008.91
2022-08-26T08:22:25.481Z,1008.89
2022-08-26T08:23:25.520Z,1008.96
2022-08-26T08:24:25.547Z,1008.93
2022-08-26T08:25:25.582Z,1008.94
2022-08-26T08:26:25.611Z,1008.94
2022-08-26T08:27:25.641Z,1008.94
2022-08-26T08:28:25.672Z,1008.98
2022-08-26T08:29:25.705Z,1008.99
2022-08-26T08:30:25.741Z,1009.01
2022-08-26T08:31:52.448Z,1009.00
2022-08-26T08:32:25.793Z,1009.03
2022-08-26T08:33:25.826Z,1009.01
2022-08-26T08:34:26.094Z,1009.00
2022-08-26T08:35:25.892Z,1008.97
2022-08-26T08:36:25.925Z,1009.02
2022-08-26T08:37:25.965Z,1008.98
2022-08-26T08:38:25.992Z,1008.96
2022-08-26T08:39:26.024Z,1008.98
2022-08-26T08:40:26.108Z,1008.98
2022-08-26T08:41:26.083Z,1008.98
2022-08-26T08:42:26.117Z,1009.01
2022-08-26T08:43:26.153Z,1009.05
2022-08-26T08:45:26.216Z,1009.07
2022-08-26T08:46:26.562Z,1009.06
2022-08-26T08:47:26.280Z,1009.08
2022-08-26T08:48:27.312Z,1009.08
2022-08-26T08:49:26.341Z,1009.10
2022-08-26T08:50:26.372Z,1009.10
2022-08-26T08:51:26.406Z,1009.11
2022-08-26T08:52:26.660Z,1009.10
2022-08-26T08:53:26.488Z,1009.13
2022-08-26T08:54:26.505Z,1009.16
2022-08-26T08:55:26.554Z,1009.14
2022-08-26T08:56:26.575Z,1009.15
2022-08-26T08:57:26.604Z,1009.14
2022-08-26T08:58:26.634Z,1009.11
2022-08-26T08:59:26.665Z,1009.12
2022-08-26T09:00:27.693Z,1009.08
2022-08-26T09:01:26.839Z,1009.08
2022-08-26T09:02:26.818Z,1009.08
2022-08-26T09:03:26.802Z,1009.05
2022-08-26T09:04:26.826Z,1009.07
2022-08-26T09:05:26.858Z,1009.04
2022-08-26T09:06:27.768Z,1009.05
2022-08-26T09:07:26.922Z,1009.06
2022-08-26T09:08:26.958Z,1009.05
2022-08-26T09:09:26.989Z,1009.01
2022-08-26T09:10:27.018Z,1009.04
2022-08-26T09:11:27.052Z,1009.04
2022-08-26T09:12:29.780Z,1009.06
2022-08-26T09:13:27.474Z,1009.05
2022-08-26T09:14:27.160Z,1009.04
2022-08-26T09:15:30.207Z,1009.06
2022-08-26T09:16:27.249Z,1009.01
2022-08-26T09:17:27.246Z,1009.05
2022-08-26T09:18:27.280Z,1009.01
2022-08-26T09:19:27.309Z,1009.06
2022-08-26T09:20:27.342Z,1009.04
2022-08-26T09:21:27.416Z,1009.05
2022-08-26T09:22:27.407Z,1009.08
2022-08-26T09:23:27.439Z,1009.08
2022-08-26T09:24:28.614Z,1009.05
2022-08-26T09:25:27.499Z,1009.11
2022-08-26T09:26:30.768Z,1009.05
2022-08-26T09:27:27.564Z,1009.05
2022-08-26T09:28:27.597Z,1009.08
2022-08-26T09:29:27.630Z,1009.08
2022-08-26T09:30:27.681Z,1009.08
2022-08-26T09:31:27.804Z,1009.14
2022-08-26T09:32:27.726Z,1009.09
2022-08-26T09:33:27.762Z,1009.14
2022-08-26T09:34:27.809Z,1009.12
2022-08-26T09:35:27.830Z,1009.11
2022-08-26T09:36:27.859Z,1009.13
2022-08-26T09:37:27.892Z,1009.12
2022-08-26T09:38:28.189Z,1009.12
2022-08-26T09:39:28.000Z,1009.12
2022-08-26T09:40:28.085Z,1009.16
2022-08-26T09:41:28.020Z,1009.10
2022-08-26T09:42:28.053Z,1009.13
2022-08-26T09:43:28.099Z,1009.14
2022-08-26T09:44:28.120Z,1009.15
2022-08-26T09:45:28.151Z,1009.12
2022-08-26T09:46:28.300Z,1009.11
2022-08-26T09:47:28.216Z,1009.07
2022-08-26T09:48:28.247Z,1009.07
2022-08-26T09:49:29.913Z,1009.12
2022-08-26T09:50:29.111Z,1009.07
2022-08-26T09:51:28.364Z,1009.04
2022-08-26T09:52:28.378Z,1009.06
2022-08-26T09:53:30.496Z,1009.10
2022-08-26T09:54:30.133Z,1009.07
2022-08-26T09:55:28.563Z,1009.04
2022-08-26T09:56:28.513Z,1009.03
2022-08-26T09:57:28.539Z,1009.04
2022-08-26T09:58:28.571Z,1009.08
2022-08-26T09:59:28.606Z,1009.04
2022-08-26T10:00:28.640Z,1009.07
2022-08-26T10:01:30.157Z,1009.05
2022-08-26T10:02:28.722Z,1009.02
2022-08-26T10:03:28.730Z,1009.04
2022-08-26T10:04:28.806Z,1009.09
2022-08-26T10:05:28.795Z,1009.03
2022-08-26T10:06:28.847Z,1009.02
2022-08-26T10:07:28.862Z,1009.01
2022-08-26T10:08:28.897Z,1009.03
2022-08-26T10:09:28.928Z,1009.00
2022-08-26T10:10:28.958Z,1009.01
2022-08-26T10:11:28.991Z,1009.00
2022-08-26T10:12:29.021Z,1009.00
2022-08-26T10:13:29.585Z,1008.98
2022-08-26T10:14:29.105Z,1008.95
2022-08-26T10:15:29.120Z,1008.95
2022-08-26T10:16:29.190Z,1008.91
2022-08-26T10:17:30.745Z,1008.89
2022-08-26T10:18:33.650Z,1008.88
2022-08-26T10:19:55.988Z,1008.87
2022-08-26T10:20:29.307Z,1008.86
2022-08-26T10:21:29.343Z,1008.87
2022-08-26T10:22:29.350Z,1008.88
2022-08-26T10:23:29.423Z,1008.88
2022-08-26T10:24:29.412Z,1008.88
2022-08-26T10:25:29.446Z,1008.87
2022-08-26T10:26:29.481Z,1008.87
2022-08-26T10:27:29.513Z,1008.83
2022-08-26T10:28:29.546Z,1008.87
2022-08-26T10:29:29.576Z,1008.83
2022-08-26T10:30:29.612Z,1008.87
2022-08-26T10:31:29.678Z,1008.90
2022-08-26T10:32:29.766Z,1008.83
2022-08-26T10:33:29.710Z,1008.82
2022-08-26T10:34:29.743Z,1008.83
2022-08-26T10:35:29.775Z,1008.83
2022-08-26T10:36:29.810Z,1008.78
2022-08-26T10:37:29.843Z,1008.80
2022-08-26T10:38:29.875Z,1008.77
2022-08-26T10:39:29.907Z,1008.79
2022-08-26T10:40:30.013Z,1008.77
2022-08-26T10:41:29.975Z,1008.78
2022-08-26T10:42:30.013Z,1008.76
2022-08-26T10:43:30.057Z,1008.78
2022-08-26T10:44:30.071Z,1008.80
2022-08-26T10:45:30.208Z,1008.77
2022-08-26T10:46:30.150Z,1008.85
2022-08-26T10:47:30.172Z,1008.84
2022-08-26T10:48:35.682Z,1008.80
2022-08-26T10:49:30.234Z,1008.78
2022-08-26T10:50:30.270Z,1008.78
2022-08-26T10:51:30.310Z,1008.73
2022-08-26T10:52:30.332Z,1008.80
2022-08-26T10:53:32.697Z,1008.75
2022-08-26T10:54:30.402Z,1008.72
2022-08-26T10:55:30.434Z,1008.75
2022-08-26T10:56:30.467Z,1008.74
2022-08-26T10:57:30.501Z,1008.74
2022-08-26T10:58:30.533Z,1008.73
2022-08-26T10:59:30.577Z,1008.75
2022-08-26T11:00:31.307Z,1008.74
2022-08-26T11:01:30.686Z,1008.76
2022-08-26T11:02:30.664Z,1008.73
2022-08-26T11:03:30.699Z,1008.77
2022-08-26T11:04:30.766Z,1008.68
2022-08-26T11:05:30.764Z,1008.69
2022-08-26T11:06:30.795Z,1008.72
2022-08-26T11:07:31.738Z,1008.70
2022-08-26T11:08:30.860Z,1008.79
2022-08-26T11:09:30.892Z,1008.72
2022-08-26T11:10:30.925Z,1008.74
2022-08-26T11:11:30.956Z,1008.79
2022-08-26T11:12:30.990Z,1008.74
2022-08-26T11:13:31.022Z,1008.72
2022-08-26T11:14:34.051Z,1008.75
2022-08-26T11:15:31.092Z,1008.72
2022-08-26T11:16:31.155Z,1008.75
2022-08-26T11:17:31.155Z,1008.75
2022-08-26T11:18:31.188Z,1008.72
2022-08-26T11:19:45.622Z,1008.75
2022-08-26T11:20:41.512Z,1008.75
2022-08-26T11:22:36.197Z,1008.81
2022-08-26T11:23:35.335Z,1008.85
2022-08-26T11:25:39.371Z,1008.85
2022-08-26T11:26:56.339Z,1008.84
2022-08-26T11:28:44.240Z,1008.73
2022-08-26T11:29:43.465Z,1008.78
2022-08-26T11:31:47.539Z,1008.75
2022-08-26T11:32:48.780Z,1008.76
2022-08-26T11:34:52.024Z,1008.81
2022-08-26T11:35:52.278Z,1008.83
2022-08-26T11:37:56.095Z,1008.77
2022-08-26T11:38:55.645Z,1008.76
2022-08-26T11:40:48.610Z,1008.81
2022-08-26T11:41:48.633Z,1008.83
2022-08-26T11:43:53.131Z,1008.82
2022-08-26T11:44:52.693Z,1008.78
2022-08-26T11:46:56.725Z,1008.74
2022-08-26T11:47:56.755Z,1008.71
2022-08-26T11:50:01.259Z,1008.73
2022-08-26T11:51:01.030Z,1008.72
2022-08-26T11:53:06.269Z,1008.68
2022-08-26T11:54:05.088Z,1008.67
2022-08-26T11:56:09.601Z,1008.64
2022-08-26T11:57:09.355Z,1008.60
2022-08-26T11:59:13.195Z,1008.61
2022-08-26T12:00:15.830Z,1008.58
2022-08-26T12:02:18.116Z,1008.52
2022-08-26T12:03:17.339Z,1008.54
2022-08-26T12:05:21.802Z,1008.53
2022-08-26T12:06:21.379Z,1008.52
2022-08-26T12:08:14.543Z,1008.52
2022-08-26T12:09:14.547Z,1008.50
2022-08-26T12:11:19.071Z,1008.47
2022-08-26T12:12:18.608Z,1008.42
2022-08-26T12:14:22.660Z,1008.41
2022-08-26T12:15:22.687Z,1008.37
2022-08-26T12:17:27.219Z,1008.35
2022-08-26T12:18:29.324Z,1008.35
2022-08-26T12:20:19.720Z,1008.30
2022-08-26T12:21:19.740Z,1008.30
2022-08-26T12:24:28.245Z,1008.26
2022-08-26T12:25:27.814Z,1008.25
2022-08-26T12:27:32.318Z,1008.18
2022-08-26T12:28:31.876Z,1008.25
2022-08-26T12:30:26.160Z,1008.20
2022-08-26T12:31:24.893Z,1008.13
2022-08-26T12:33:29.377Z,1008.13
2022-08-26T12:34:28.932Z,1008.13
2022-08-26T12:36:32.974Z,1008.13
2022-08-26T12:37:32.993Z,1008.16
2022-08-26T12:39:37.507Z,1008.17
2022-08-26T12:40:37.118Z,1008.10
2022-08-26T12:41:37.088Z,1008.10
2022-08-26T12:42:37.123Z,1008.06
2022-08-26T12:43:37.159Z,1008.03
2022-08-26T12:44:37.190Z,1008.13